Time;durP1;ratioP1;P1;durP2;ratioP2;P2;SDS_P1;SDS_P2;PMS_P1;PMS_P2;Temp;Humidity;BMP_temperature;BMP_pressure;BME280_temperature;BME280_humidity;BME280_pressure;Samples;Min_cycle;Max_cycle;Signal;HPM_P1;HPM_P2
2022/01/23 00:00:40;;;;;;;13.20;10.50;;;;;;;8.07;52.24;100275.28;5095687;28;20114;-49
2022/01/23 00:03:12;;;;;;;15.43;11.77;;;;;;;8.14;52.01;100285.03;5095695;28;20048;-47
2022/01/23 00:05:41;;;;;;;19.88;12.30;;;;;;;8.04;51.92;100278.19;5095636;28;20031;-48
2022/01/23 00:08:08;;;;;;;16.15;10.35;;;;;;;7.94;52.21;100275.63;5095628;28;20528;-47
2022/01/23 00:10:34;;;;;;;15.98;11.50;;;;;;;7.87;52.51;100283.22;5095448;28;20023;-47
2022/01/23 00:13:13;;;;;;;17.30;11.43;;;;;;;7.84;52.80;100278.25;5095495;28;20516;-49
2022/01/23 00:18:23;;;;;;;20.77;12.35;;;;;;;7.79;52.35;100280.50;5095394;28;20413;-49
2022/01/23 00:20:50;;;;;;;18.85;11.43;;;;;;;7.82;52.81;100287.22;5095194;28;20024;-49
2022/01/23 00:30:17;;;;;;;709.00;548.45;;;;;;;7.82;53.06;100280.19;5095223;28;20495;-48
2022/01/23 00:31:45;;;;;;;25.58;20.42;;;;;;;8.03;52.85;100287.00;5095135;28;20069;-48
2022/01/23 00:34:11;;;;;;;26.20;17.08;;;;;;;8.01;52.73;100289.78;5093783;28;20016;-48
2022/01/23 00:36:36;;;;;;;21.58;15.02;;;;;;;8.08;52.84;100290.81;5094736;28;20410;-49
2022/01/23 00:39:03;;;;;;;20.02;12.70;;;;;;;8.16;51.84;100290.09;5094925;28;20020;-48
2022/01/23 00:41:30;;;;;;;19.08;12.98;;;;;;;8.23;52.16;100290.34;5093505;28;20020;-49
2022/01/23 00:43:55;;;;;;;14.90;12.50;;;;;;;8.24;52.33;100294.63;5093627;28;20048;-48
2022/01/23 00:46:29;;;;;;;15.20;11.38;;;;;;;8.29;52.17;100288.00;5094791;28;20050;-49
2022/01/23 00:51:22;;;;;;;17.20;11.77;;;;;;;8.15;51.72;100288.47;5094680;28;20024;-47
2022/01/23 00:53:48;;;;;;;17.17;12.95;;;;;;;8.08;52.18;100276.94;5094715;28;20024;-47
2022/01/23 00:56:14;;;;;;;18.35;11.95;;;;;;;8.02;52.22;100277.50;5094655;28;20020;-47
2022/01/23 00:58:40;;;;;;;17.02;12.05;;;;;;;7.92;52.16;100277.56;5094605;28;20486;-49
2022/01/23 01:01:06;;;;;;;18.48;12.43;;;;;;;7.75;52.10;100274.72;5094490;28;20098;-48
2022/01/23 01:03:31;;;;;;;17.75;12.20;;;;;;;7.76;52.48;100273.75;5093250;28;20032;-48
2022/01/23 01:05:57;;;;;;;18.38;11.13;;;;;;;7.77;52.48;100278.03;5093132;28;20020;-48
2022/01/23 01:08:23;;;;;;;21.38;13.02;;;;;;;7.75;52.69;100277.34;5092318;28;20063;-48
2022/01/23 01:13:29;;;;;;;18.65;13.55;;;;;;;7.36;52.65;100272.22;5094370;28;20111;-48
2022/01/23 01:16:52;;;;;;;15.70;12.10;;;;;;;7.31;53.56;100277.03;5094384;28;20107;-48
2022/01/23 01:32:52;;;;;;;17.52;12.23;;;;;;;6.88;54.41;100280.91;5094021;28;20081;-49
2022/01/23 01:37:50;;;;;;;23.10;13.00;;;;;;;6.84;54.82;100287.38;5093761;28;20055;-48
2022/01/23 01:40:16;;;;;;;13.77;12.07;;;;;;;6.79;55.18;100282.53;5092424;28;20020;-48
2022/01/23 01:42:44;;;;;;;16.23;12.98;;;;;;;6.92;54.87;100284.91;5093774;28;20111;-48
2022/01/23 01:45:10;;;;;;;22.30;12.98;;;;;;;6.94;55.41;100282.97;5092419;28;20023;-48
2022/01/23 01:47:37;;;;;;;19.00;12.57;;;;;;;6.93;55.60;100285.72;5093694;28;20398;-48
2022/01/23 01:50:05;;;;;;;16.67;12.00;;;;;;;7.01;55.20;100280.63;5093624;28;20024;-48
2022/01/23 01:52:33;;;;;;;17.33;13.40;;;;;;;7.15;54.86;100279.38;5092223;28;20024;-48
2022/01/23 01:55:03;;;;;;;20.92;12.18;;;;;;;7.24;54.33;100278.53;5093561;28;20024;-48
2022/01/23 01:57:35;;;;;;;17.05;11.60;;;;;;;7.54;55.13;100287.16;5093492;28;20039;-48
2022/01/23 02:02:52;;;;;;;20.27;11.40;;;;;;;7.93;53.71;100280.03;5093705;28;20039;-48
2022/01/23 02:10:54;;;;;;;22.75;11.80;;;;;;;8.43;52.66;100278.88;5093220;28;20410;-48
2022/01/23 02:13:31;;;;;;;17.08;10.93;;;;;;;8.55;52.32;100274.22;5093233;28;20543;-48
2022/01/23 02:56:50;;;;;;;20.73;13.20;;;;;;;7.84;52.83;100246.09;5049973;28;20033;-49
2022/01/23 02:59:23;;;;;;;19.17;12.68;;;;;;;7.86;53.10;100239.72;5049936;28;20033;-48
2022/01/23 03:04:38;;;;;;;17.90;11.57;;;;;;;7.88;52.73;100240.41;5049914;28;20618;-48
2022/01/23 03:07:19;;;;;;;20.30;13.13;;;;;;;7.92;53.09;100244.38;5054232;28;20041;-48
2022/01/23 03:28:34;;;;;;;20.27;13.32;;;;;;;7.11;54.49;100236.25;5049571;28;20507;-48
2022/01/23 03:33:29;;;;;;;18.70;12.35;;;;;;;6.84;54.73;100248.22;5049476;28;20029;-48
2022/01/23 03:35:55;;;;;;;16.35;12.50;;;;;;;6.64;55.19;100244.78;5049142;28;20033;-48
2022/01/23 03:38:21;;;;;;;17.83;12.85;;;;;;;6.82;56.07;100241.47;5032693;28;20036;-48
2022/01/23 03:40:46;;;;;;;21.40;13.50;;;;;;;6.98;55.48;100249.56;5049316;28;20411;-48
2022/01/23 03:43:14;;;;;;;17.95;11.45;;;;;;;7.15;55.09;100250.66;5049331;28;20037;-48
2022/01/23 03:51:05;;;;;;;18.65;12.65;;;;;;;7.58;54.47;100244.91;5091781;28;20166;-47
2022/01/23 03:53:30;;;;;;;16.42;11.25;;;;;;;7.71;53.87;100243.81;5090347;28;20111;-48
2022/01/23 03:55:56;;;;;;;21.27;13.63;;;;;;;7.70;53.56;100231.69;5091636;28;20378;-48
2022/01/23 03:58:22;;;;;;;18.50;12.10;;;;;;;7.62;53.31;100224.56;5091668;28;20383;-47
2022/01/23 04:00:48;;;;;;;22.60;13.43;;;;;;;7.65;53.27;100228.69;5091571;28;20064;-47
2022/01/23 04:03:17;;;;;;;20.05;12.25;;;;;;;7.64;53.70;100234.88;5091635;28;20443;-49
2022/01/23 04:05:43;;;;;;;18.08;12.13;;;;;;;7.63;53.93;100228.84;5091586;28;20626;-48
2022/01/23 04:08:09;;;;;;;14.82;11.45;;;;;;;7.66;53.24;100227.72;5091547;28;20107;-48
2022/01/23 04:10:35;;;;;;;16.80;12.48;;;;;;;7.56;53.50;100232.97;5091593;28;20080;-47
2022/01/23 04:15:45;;;;;;;19.38;12.77;;;;;;;6.71;55.26;100232.81;5091529;28;20127;-50
2022/01/23 05:01:50;;;;;;;20.50;12.68;;;;;;;7.63;53.25;100217.56;5094531;28;20034;-48
2022/01/23 05:06:43;;;;;;;21.80;13.00;;;;;;;7.57;53.21;100219.78;5094463;28;20028;-48
2022/01/23 05:09:13;;;;;;;18.67;12.10;;;;;;;7.42;53.62;100215.16;5094484;28;20132;-49
2022/01/23 05:11:47;;;;;;;20.17;15.30;;;;;;;7.34;53.79;100211.44;5093387;28;20020;-48
2022/01/23 05:14:13;;;;;;;19.67;12.15;;;;;;;7.14;53.46;100209.84;5093095;28;20043;-49
2022/01/23 05:16:39;;;;;;;19.60;12.15;;;;;;;6.98;54.47;100221.69;5094286;28;20084;-47
2022/01/23 05:19:05;;;;;;;29.48;21.25;;;;;;;7.08;54.54;100226.06;5092922;28;20549;-47
2022/01/23 05:24:01;;;;;;;19.40;13.50;;;;;;;7.33;54.06;100215.03;5094203;28;20024;-48
2022/01/23 05:26:27;;;;;;;21.17;12.82;;;;;;;7.37;53.21;100216.41;5094175;28;20111;-48
2022/01/23 05:28:53;;;;;;;16.08;12.45;;;;;;;7.36;53.55;100216.53;5094058;28;20611;-48
2022/01/23 05:31:19;;;;;;;35.17;26.35;;;;;;;7.32;53.75;100213.38;5094002;28;20027;-48
2022/01/23 05:33:44;;;;;;;21.55;14.63;;;;;;;7.30;53.21;100227.53;5094049;28;20516;-49
2022/01/23 05:36:10;;;;;;;19.25;12.35;;;;;;;7.35;53.89;100235.78;5092371;28;20047;-48
2022/01/23 05:38:36;;;;;;;23.98;14.55;;;;;;;7.39;53.22;100226.72;5093939;28;20026;-48
2022/01/23 05:41:02;;;;;;;21.42;13.65;;;;;;;7.43;54.03;100222.03;5093711;28;20022;-48
2022/01/23 05:43:28;;;;;;;19.73;12.95;;;;;;;7.38;54.05;100225.03;5092436;28;20020;-48
2022/01/23 05:45:53;;;;;;;20.95;14.77;;;;;;;7.35;53.95;100225.34;5093717;28;20107;-48
2022/01/23 05:48:20;;;;;;;21.50;13.55;;;;;;;7.38;53.34;100228.50;5092400;28;20070;-47
2022/01/23 05:50:47;;;;;;;15.68;12.15;;;;;;;7.43;53.02;100228.06;5092289;28;20047;-48
2022/01/23 05:53:13;;;;;;;26.15;13.90;;;;;;;7.38;53.05;100233.72;5093356;28;20099;-46
2022/01/23 05:55:39;;;;;;;20.80;13.77;;;;;;;7.35;53.42;100236.59;5092195;28;20111;-49
2022/01/23 05:58:05;;;;;;;19.13;13.35;;;;;;;7.34;53.24;100231.53;5093501;28;20020;-48
2022/01/23 06:00:30;;;;;;;19.75;13.43;;;;;;;7.32;53.77;100231.66;5092072;28;20024;-47
2022/01/23 06:02:56;;;;;;;24.13;14.00;;;;;;;7.30;53.41;100233.56;5092100;28;20501;-48
2022/01/23 06:05:22;;;;;;;21.13;14.52;;;;;;;7.29;53.62;100244.19;5093256;28;20024;-48
2022/01/23 06:07:50;;;;;;;25.40;14.35;;;;;;;7.25;53.48;100243.63;5093312;28;20488;-48
2022/01/23 06:10:25;;;;;;;19.17;13.40;;;;;;;7.28;53.78;100245.97;5093266;28;20035;-47
2022/01/23 06:12:51;;;;;;;19.52;12.15;;;;;;;7.33;53.85;100248.16;5092023;28;20066;-48
2022/01/23 06:15:17;;;;;;;20.55;13.55;;;;;;;7.39;53.44;100248.41;5091799;28;20401;-48
2022/01/23 06:17:43;;;;;;;21.98;13.75;;;;;;;7.35;53.45;100249.66;5093134;28;20482;-48
2022/01/23 06:20:12;;;;;;;24.13;14.38;;;;;;;7.37;53.29;100252.97;5092960;28;20023;-47
2022/01/23 06:22:38;;;;;;;21.48;13.07;;;;;;;7.41;53.37;100248.28;5093014;28;20413;-48
2022/01/23 06:25:08;;;;;;;43.03;32.88;;;;;;;7.40;53.12;100247.47;5092928;28;20024;-49
2022/01/23 06:27:34;;;;;;;29.73;19.27;;;;;;;7.41;53.28;100243.06;5092943;28;20039;-48
2022/01/23 06:30:00;;;;;;;19.48;13.27;;;;;;;7.46;53.01;100235.59;5092905;28;20051;-47
2022/01/23 06:32:26;;;;;;;18.33;12.45;;;;;;;7.39;52.85;100229.31;5092897;28;20064;-48
2022/01/23 06:34:53;;;;;;;18.23;12.93;;;;;;;7.31;53.63;100235.25;5091492;28;20054;-47
2022/01/23 06:37:18;;;;;;;19.27;13.57;;;;;;;7.20;53.53;100235.38;5092528;28;20048;-48
2022/01/23 06:39:44;;;;;;;18.48;12.15;;;;;;;7.04;53.88;100235.13;5092765;28;20154;-47
2022/01/23 06:42:10;;;;;;;20.30;13.35;;;;;;;6.93;53.61;100246.56;5092539;28;20153;-47
2022/01/23 06:44:37;;;;;;;21.55;12.93;;;;;;;6.92;53.93;100253.56;5091359;28;20027;-48
2022/01/23 06:47:04;;;;;;;20.65;13.38;;;;;;;6.99;53.71;100249.44;5092597;28;20521;-47
2022/01/23 06:49:30;;;;;;;22.23;15.63;;;;;;;7.04;54.45;100246.41;5091220;28;20169;-48
2022/01/23 06:51:56;;;;;;;18.65;12.23;;;;;;;7.08;53.33;100244.34;5092495;28;20514;-48
2022/01/23 06:54:22;;;;;;;19.45;12.48;;;;;;;7.13;54.14;100248.19;5092531;28;20499;-48
2022/01/23 06:56:48;;;;;;;20.90;14.45;;;;;;;7.13;53.33;100245.56;5092381;28;20055;-48
2022/01/23 06:59:14;;;;;;;26.40;13.43;;;;;;;7.04;53.99;100253.41;5091037;28;20031;-48
2022/01/23 07:01:40;;;;;;;19.80;13.50;;;;;;;6.79;54.50;100253.81;5092331;28;20016;-49
2022/01/23 07:04:06;;;;;;;18.38;12.80;;;;;;;6.85;54.49;100255.06;5092279;28;20027;-48
2022/01/23 07:06:32;;;;;;;18.08;12.95;;;;;;;6.83;53.91;100246.56;5090394;28;20020;-49
2022/01/23 07:08:57;;;;;;;19.08;13.23;;;;;;;6.65;54.43;100256.03;5090928;28;20035;-48
2022/01/23 07:11:23;;;;;;;19.85;12.38;;;;;;;6.36;55.10;100254.22;5092172;28;20165;-47
2022/01/23 07:13:48;;;;;;;18.23;12.07;;;;;;;6.37;54.88;100259.28;5092167;28;20032;-48
2022/01/23 07:16:14;;;;;;;25.50;13.57;;;;;;;6.32;55.44;100258.03;5092103;28;20103;-48
2022/01/23 07:18:40;;;;;;;21.58;12.75;;;;;;;6.20;55.29;100257.31;5092079;28;20444;-48
2022/01/23 07:21:06;;;;;;;15.73;11.30;;;;;;;6.25;55.86;100260.34;5091919;28;20485;-48
2022/01/23 07:23:31;;;;;;;19.73;12.13;;;;;;;6.15;55.35;100267.31;5092438;28;20020;-48
2022/01/23 07:25:58;;;;;;;20.80;12.95;;;;;;;6.25;55.59;100268.16;5092051;28;20028;-47
2022/01/23 07:28:35;;;;;;;22.98;12.75;;;;;;;6.55;55.56;100269.88;5092041;28;20067;-48
2022/01/23 07:31:04;;;;;;;20.20;12.57;;;;;;;6.89;55.32;100271.28;5092059;28;20082;-48
2022/01/23 07:33:33;;;;;;;23.50;12.32;;;;;;;7.02;54.12;100266.59;5092014;28;20020;-48
2022/01/23 07:36:01;;;;;;;20.55;12.77;;;;;;;7.03;54.15;100260.44;5091660;28;20398;-49
2022/01/23 07:38:27;;;;;;;25.15;16.42;;;;;;;6.90;54.60;100265.94;5091836;28;20081;-49
2022/01/23 07:40:52;;;;;;;19.70;13.35;;;;;;;6.67;53.75;100261.94;5091735;28;20020;-49
2022/01/23 07:43:18;;;;;;;22.85;16.63;;;;;;;6.57;55.13;100261.91;5091812;28;20024;-49
2022/01/23 07:45:44;;;;;;;25.95;17.98;;;;;;;6.72;55.03;100264.94;5091789;28;20390;-48
2022/01/23 07:48:10;;;;;;;20.70;13.20;;;;;;;6.85;53.84;100270.72;5090409;28;20395;-47
2022/01/23 07:50:36;;;;;;;21.50;11.98;;;;;;;6.91;54.40;100262.34;5090416;28;20082;-48
2022/01/23 07:53:03;;;;;;;23.88;12.30;;;;;;;7.16;54.33;100262.75;5090420;28;20024;-48
2022/01/23 07:55:30;;;;;;;22.50;12.55;;;;;;;7.36;53.43;100263.53;5091722;28;20391;-48
2022/01/23 07:58:02;;;;;;;19.48;12.40;;;;;;;7.51;53.08;100269.16;5090381;28;20058;-48
2022/01/23 08:00:29;;;;;;;22.52;13.70;;;;;;;7.58;52.98;100263.22;5091627;28;20059;-48
2022/01/23 08:02:54;;;;;;;18.60;11.85;;;;;;;7.48;52.83;100265.03;5091713;28;20103;-48
2022/01/23 08:05:20;;;;;;;27.25;13.35;;;;;;;7.54;53.07;100274.09;5091544;28;20448;-48
2022/01/23 08:07:46;;;;;;;18.55;12.70;;;;;;;7.70;52.96;100276.13;5090286;28;20024;-49
2022/01/23 08:10:11;;;;;;;19.63;13.68;;;;;;;7.76;51.96;100268.50;5090229;28;20114;-48
2022/01/23 08:12:39;;;;;;;24.00;14.02;;;;;;;7.66;52.43;100270.34;5090297;28;20031;-47
2022/01/23 08:15:05;;;;;;;20.55;13.25;;;;;;;7.66;52.53;100279.97;5091460;28;20035;-48
2022/01/23 08:17:32;;;;;;;19.95;12.45;;;;;;;7.68;52.27;100278.88;5094345;28;20494;-48
2022/01/23 08:20:00;;;;;;;18.27;14.05;;;;;;;7.75;51.94;100284.38;5095348;28;20016;-47
2022/01/23 08:22:28;;;;;;;19.85;13.52;;;;;;;7.70;52.64;100282.16;5095347;28;20031;-48
2022/01/23 08:24:56;;;;;;;17.02;12.75;;;;;;;7.82;52.04;100282.00;5095789;28;20028;-47
2022/01/23 08:27:23;;;;;;;19.38;13.93;;;;;;;7.86;51.81;100280.75;5095286;28;20028;-49
2022/01/23 08:29:48;;;;;;;19.05;14.20;;;;;;;7.71;51.63;100281.19;5095235;28;20056;-47
2022/01/23 08:32:14;;;;;;;18.75;13.18;;;;;;;7.51;51.70;100282.22;5095186;28;20055;-49
2022/01/23 08:34:40;;;;;;;19.45;13.60;;;;;;;7.32;52.58;100275.22;5095178;28;20051;-48
2022/01/23 08:37:07;;;;;;;19.15;12.57;;;;;;;7.31;52.83;100279.63;5094852;28;20044;-48
2022/01/23 08:39:36;;;;;;;18.73;13.35;;;;;;;7.43;52.71;100284.72;5093776;28;20039;-47
2022/01/23 08:42:04;;;;;;;18.85;13.32;;;;;;;7.67;51.72;100282.47;5094950;28;20043;-48
2022/01/23 08:44:29;;;;;;;16.80;12.85;;;;;;;7.84;51.51;100277.44;5093678;28;20043;-48
2022/01/23 08:46:55;;;;;;;20.77;13.35;;;;;;;7.97;51.98;100283.19;5093522;28;20020;-48
2022/01/23 08:49:23;;;;;;;19.65;13.32;;;;;;;8.23;51.53;100274.66;5094938;28;20047;-48
2022/01/23 08:51:51;;;;;;;19.65;14.07;;;;;;;8.34;50.77;100277.91;5094841;28;20024;-48
2022/01/23 08:54:17;;;;;;;20.65;13.38;;;;;;;8.15;50.34;100280.63;5094781;28;20028;-49
2022/01/23 08:56:43;;;;;;;22.08;14.35;;;;;;;8.03;51.15;100272.16;5094732;28;20497;-48
2022/01/23 08:59:10;;;;;;;20.38;15.85;;;;;;;8.09;51.12;100268.09;5094674;28;20020;-48
2022/01/23 09:01:36;;;;;;;25.67;14.13;;;;;;;8.21;50.59;100274.81;5094581;28;20103;-48
2022/01/23 09:04:02;;;;;;;18.65;13.48;;;;;;;8.12;50.24;100279.09;5094557;28;20107;-48
2022/01/23 09:06:28;;;;;;;26.60;14.60;;;;;;;8.00;50.92;100275.84;5094516;28;20020;-48
2022/01/23 09:08:55;;;;;;;19.98;14.20;;;;;;;7.92;50.68;100274.94;5094540;28;20077;-48
2022/01/23 09:16:16;;;;;;;20.88;14.00;;;;;;;8.17;51.19;100279.50;5094338;28;20034;-48
2022/01/23 09:18:42;;;;;;;22.70;15.40;;;;;;;8.27;50.81;100273.38;5094325;28;20505;-48
2022/01/23 09:21:09;;;;;;;37.35;28.45;;;;;;;8.25;51.19;100275.31;5094206;28;20205;-48
2022/01/23 09:23:34;;;;;;;311.38;277.95;;;;;;;8.37;51.13;100269.78;5094107;28;20024;-48
2022/01/23 09:26:08;;;;;;;56.72;47.65;;;;;;;8.51;51.08;100275.47;5094089;28;20036;-48
2022/01/23 09:28:34;;;;;;;52.63;46.40;;;;;;;8.35;50.78;100273.47;5093564;28;20067;-48
2022/01/23 09:31:00;;;;;;;30.73;20.45;;;;;;;8.03;51.39;100268.69;5092693;28;20379;-48
2022/01/23 09:33:27;;;;;;;25.50;17.52;;;;;;;7.86;51.76;100270.28;5092988;28;20027;-48
2022/01/23 09:35:53;;;;;;;20.27;14.52;;;;;;;7.93;52.47;100263.53;5092396;28;20040;-49
2022/01/23 09:38:19;;;;;;;22.67;13.43;;;;;;;8.11;51.35;100267.03;5093986;28;20031;-47
2022/01/23 09:40:49;;;;;;;25.20;17.38;;;;;;;8.16;51.29;100264.78;5093806;28;20178;-48
2022/01/23 09:43:22;;;;;;;20.83;14.40;;;;;;;8.23;51.12;100258.97;5092515;28;20070;-48
2022/01/23 09:45:49;;;;;;;22.48;14.80;;;;;;;8.18;50.86;100257.59;5093768;28;20111;-48
2022/01/23 09:48:17;;;;;;;23.80;14.27;;;;;;;8.11;51.42;100255.72;5093731;28;20024;-48
2022/01/23 09:50:46;;;;;;;26.10;15.75;;;;;;;8.04;51.59;100258.09;5093897;28;20450;-48
2022/01/23 09:53:14;;;;;;;23.52;14.55;;;;;;;8.14;51.89;100258.06;5093649;28;20020;-49
2022/01/23 09:55:44;;;;;;;26.88;16.65;;;;;;;8.37;51.33;100261.06;5093613;28;20111;-49
2022/01/23 09:58:10;;;;;;;25.88;15.23;;;;;;;8.56;50.68;100268.03;5092213;28;20023;-48
2022/01/23 10:00:36;;;;;;;24.92;13.45;;;;;;;8.56;50.21;100261.00;5093385;28;20024;-49
2022/01/23 10:03:02;;;;;;;28.50;15.30;;;;;;;8.62;50.00;100261.38;5092080;28;20031;-48
2022/01/23 10:05:29;;;;;;;23.05;15.45;;;;;;;8.67;49.76;100267.81;5092101;28;20054;-48
2022/01/23 10:07:55;;;;;;;20.65;15.07;;;;;;;8.73;49.82;100271.63;5093334;28;20020;-48
2022/01/23 10:10:26;;;;;;;24.75;14.55;;;;;;;8.67;50.26;100267.81;5091927;28;20081;-48
2022/01/23 10:12:55;;;;;;;22.95;14.70;;;;;;;8.64;49.73;100268.09;5093316;28;20025;-49
2022/01/23 10:15:25;;;;;;;21.10;14.75;;;;;;;8.65;50.41;100267.13;5093198;28;20434;-49
2022/01/23 10:17:52;;;;;;;23.92;16.25;;;;;;;8.65;50.13;100261.88;5093149;28;20027;-49
2022/01/23 10:20:18;;;;;;;23.30;15.70;;;;;;;8.73;50.13;100267.22;5092994;28;20102;-49
2022/01/23 10:22:47;;;;;;;23.10;16.50;;;;;;;8.61;50.01;100268.38;5093120;28;20039;-49
2022/01/23 10:25:16;;;;;;;23.88;15.27;;;;;;;8.43;49.89;100264.94;5093014;28;20107;-49
2022/01/23 10:27:52;;;;;;;23.05;15.20;;;;;;;8.20;50.71;100270.53;5093280;28;20033;-48
2022/01/23 10:30:24;;;;;;;20.58;14.50;;;;;;;8.18;51.38;100257.59;5091624;28;20028;-50
2022/01/23 10:33:10;;;;;;;24.27;14.90;;;;;;;8.42;50.55;100264.13;5092950;28;20028;-49
2022/01/23 10:35:55;;;;;;;22.15;13.85;;;;;;;8.62;50.33;100262.19;5091345;28;20020;-49
2022/01/23 10:38:22;;;;;;;23.02;13.95;;;;;;;8.74;49.97;100252.34;5092871;28;20035;-49
2022/01/23 10:41:02;;;;;;;22.25;14.63;;;;;;;8.72;49.94;100247.25;5091731;28;20021;-49
2022/01/23 10:48:59;;;;;;;23.75;14.55;;;;;;;8.15;50.14;100244.03;5092630;28;20067;-48
2022/01/23 10:51:36;;;;;;;24.85;17.00;;;;;;;8.09;50.53;100244.56;5092549;28;20052;-48
2022/01/23 10:54:09;;;;;;;24.10;14.88;;;;;;;8.13;51.30;100252.00;5092573;28;20020;-49
2022/01/23 10:56:57;;;;;;;21.33;14.07;;;;;;;8.32;50.91;100258.09;5092526;28;20485;-48
2022/01/23 10:59:24;;;;;;;26.45;15.18;;;;;;;8.43;50.57;100257.09;5082594;28;20051;-49
2022/01/23 11:02:02;;;;;;;24.98;15.15;;;;;;;8.46;50.61;100246.34;5092239;28;20485;-49
2022/01/23 11:04:29;;;;;;;23.50;14.65;;;;;;;8.30;50.45;100239.94;5092369;28;20065;-48
2022/01/23 11:07:01;;;;;;;27.33;17.00;;;;;;;8.12;50.53;100239.06;5090923;28;20051;-49
2022/01/23 11:09:46;;;;;;;24.50;16.17;;;;;;;8.04;51.00;100234.56;5092311;28;20020;-48
2022/01/23 11:17:21;;;;;;;24.30;15.13;;;;;;;8.23;50.82;100227.56;5092314;28;20085;-48
2022/01/23 11:18:16;;;;;;;27.90;17.40;;;;;;;8.13;51.31;100233.69;5092388;28;20047;-48
2022/01/23 11:20:45;;;;;;;31.05;17.35;;;;;;;8.12;51.05;100233.84;5091989;28;20016;-48
2022/01/23 11:23:29;;;;;;;29.88;17.30;;;;;;;8.17;50.98;100221.97;5092049;28;20024;-49
2022/01/23 11:25:55;;;;;;;24.65;16.23;;;;;;;8.46;51.07;100223.59;5092072;28;20028;-49
2022/01/23 11:28:32;;;;;;;25.15;16.67;;;;;;;8.78;50.51;100214.41;5090682;28;20034;-49
2022/01/23 11:30:58;;;;;;;30.98;17.80;;;;;;;8.96;49.45;100217.84;5091947;28;20038;-49
2022/01/23 11:33:26;;;;;;;29.98;16.92;;;;;;;8.69;49.81;100217.94;5090580;28;20028;-48
2022/01/23 11:35:52;;;;;;;25.23;18.00;;;;;;;8.68;49.97;100206.63;5090357;28;20083;-50
2022/01/23 11:38:21;;;;;;;25.90;17.42;;;;;;;8.69;50.02;100200.44;5091955;28;20046;-48
2022/01/23 11:54:48;;;;;;;25.10;15.70;;;;;;;9.66;47.88;100171.56;5096246;28;20039;-48
2022/01/23 11:57:37;;;;;;;29.52;17.27;;;;;;;9.79;47.84;100178.00;5095850;28;20020;-48
2022/01/23 12:00:25;;;;;;;24.52;17.55;;;;;;;9.74;47.33;100174.25;5095811;28;20016;-49
2022/01/23 12:03:13;;;;;;;29.58;17.50;;;;;;;9.64;47.57;100163.88;5094448;28;20119;-49
2022/01/23 12:05:43;;;;;;;23.58;17.73;;;;;;;9.77;47.29;100174.72;5095774;28;20103;-49
2022/01/23 12:08:31;;;;;;;30.58;16.35;;;;;;;9.74;47.45;100169.81;5095718;28;20491;-50
2022/01/23 12:11:35;;;;;;;23.77;15.90;;;;;;;9.83;47.37;100170.66;5095655;28;20509;-49
2022/01/23 12:17:01;;;;;;;24.00;15.25;;;;;;;9.76;46.81;100154.75;5063899;28;20565;-48
2022/01/23 12:19:32;;;;;;;21.88;16.27;;;;;;;9.39;47.56;100153.25;5094310;28;20413;-49
2022/01/23 12:22:35;;;;;;;23.65;16.02;;;;;;;9.20;48.20;100153.50;5094129;28;20032;-49
2022/01/23 12:25:20;;;;;;;25.50;16.58;;;;;;;9.27;47.84;100153.69;5095719;28;20073;-49
2022/01/23 12:27:47;;;;;;;27.33;16.27;;;;;;;9.18;48.41;100152.84;5095392;28;20058;-49
2022/01/23 12:30:22;;;;;;;26.58;16.30;;;;;;;9.22;48.30;100148.13;5095255;28;20494;-48
2022/01/23 12:33:29;;;;;;;22.65;15.52;;;;;;;9.30;48.29;100143.75;5095217;28;20064;-48
2022/01/23 12:35:59;;;;;;;24.85;16.27;;;;;;;9.27;48.25;100145.84;5094908;28;20505;-49
2022/01/23 12:38:30;;;;;;;25.75;17.30;;;;;;;9.24;48.33;100146.97;5095186;28;20096;-49
2022/01/23 12:41:24;;;;;;;31.83;19.13;;;;;;;9.03;48.81;100144.72;5094999;28;20024;-48
2022/01/23 12:43:56;;;;;;;31.42;19.48;;;;;;;9.06;48.90;100141.00;5095070;28;20599;-48
2022/01/23 12:46:24;;;;;;;30.25;18.88;;;;;;;9.24;48.80;100133.06;5095039;28;20032;-48
2022/01/23 12:48:51;;;;;;;25.65;17.42;;;;;;;9.18;47.89;100137.13;5094932;28;20040;-48
2022/01/23 12:51:19;;;;;;;24.15;18.15;;;;;;;9.00;48.61;100135.38;5094832;28;20038;-48
2022/01/23 12:53:51;;;;;;;27.42;19.42;;;;;;;8.86;48.55;100135.94;5094775;28;20044;-49
2022/01/23 12:56:32;;;;;;;27.45;18.58;;;;;;;8.66;49.16;100129.25;5093450;28;20043;-48
2022/01/23 12:59:08;;;;;;;26.90;17.30;;;;;;;8.75;49.07;100126.56;5094794;28;20027;-49
2022/01/23 13:01:35;;;;;;;29.67;17.75;;;;;;;8.99;49.10;100118.03;5094596;28;20035;-48
2022/01/23 13:04:05;;;;;;;28.40;18.15;;;;;;;9.09;48.84;100112.66;5093597;28;20024;-49
2022/01/23 13:06:39;;;;;;;30.27;16.77;;;;;;;9.02;48.49;100111.66;5093201;28;20494;-49
2022/01/23 13:32:02;;;;;;;25.15;16.92;;;;;;;9.11;48.22;100094.19;5094080;28;20387;-48
2022/01/23 13:34:33;;;;;;;25.50;16.55;;;;;;;9.24;48.07;100091.16;5094092;28;20390;-49
2022/01/23 13:37:08;;;;;;;28.77;17.10;;;;;;;9.39;47.51;100079.09;5093810;28;20085;-49
2022/01/23 13:39:44;;;;;;;32.35;22.52;;;;;;;9.40;47.68;100084.19;5093993;28;20028;-49
2022/01/23 13:42:34;;;;;;;22.20;16.77;;;;;;;9.48;47.18;100086.00;5093873;28;20068;-49
2022/01/23 13:53:34;;;;;;;26.17;18.55;;;;;;;9.22;47.50;100080.84;5093728;28;20032;-49
2022/01/23 13:58:52;;;;;;;19.35;14.38;;;;;;;9.04;47.78;100077.47;5093603;28;20059;-49
2022/01/23 14:03:51;;;;;;;22.00;15.10;;;;;;;9.24;46.98;100080.69;5093894;28;20115;-48
2022/01/23 14:06:16;;;;;;;23.08;14.73;;;;;;;9.18;47.06;100082.94;5093463;28;20389;-49
2022/01/23 14:09:04;;;;;;;24.58;14.95;;;;;;;9.09;47.06;100080.44;5093374;28;20027;-48
2022/01/23 14:11:30;;;;;;;27.25;15.65;;;;;;;9.04;47.21;100080.91;5092030;28;20020;-49
2022/01/23 14:14:07;;;;;;;28.83;16.42;;;;;;;9.08;47.43;100076.19;5093120;28;20035;-49
2022/01/23 14:16:33;;;;;;;24.30;15.75;;;;;;;8.94;47.48;100074.97;5093270;28;20054;-48
2022/01/23 14:19:20;;;;;;;21.67;14.85;;;;;;;8.87;47.52;100072.13;5091787;28;20451;-49
2022/01/23 14:21:52;;;;;;;20.58;15.65;;;;;;;8.74;47.49;100062.06;5093002;28;20558;-49
2022/01/23 14:24:29;;;;;;;21.63;14.52;;;;;;;8.56;48.33;100059.50;5093113;28;20042;-48
2022/01/23 14:26:57;;;;;;;21.42;14.10;;;;;;;8.58;48.14;100070.63;5093108;28;20720;-48
2022/01/23 14:29:24;;;;;;;21.80;13.38;;;;;;;8.65;48.15;100070.03;5092992;28;20016;-49
2022/01/23 14:32:11;;;;;;;22.80;13.98;;;;;;;8.64;47.59;100061.38;5091626;28;20528;-48
2022/01/23 14:34:38;;;;;;;22.77;12.32;;;;;;;8.71;48.35;100058.94;5091576;28;20039;-49
2022/01/23 14:37:06;;;;;;;14.93;11.45;;;;;;;8.72;47.99;100060.59;5092631;28;20055;-49
2022/01/23 14:39:33;;;;;;;23.88;11.02;;;;;;;8.74;47.63;100056.84;5091467;28;20094;-49
2022/01/23 14:42:11;;;;;;;20.15;12.88;;;;;;;8.70;47.96;100057.31;5091367;28;20458;-49
2022/01/23 14:44:37;;;;;;;17.63;11.77;;;;;;;8.63;48.30;100057.09;5091383;28;20086;-49
2022/01/23 14:47:03;;;;;;;21.25;12.80;;;;;;;8.59;48.38;100061.00;5092658;28;20446;-49
2022/01/23 14:49:30;;;;;;;18.48;13.30;;;;;;;8.45;48.69;100057.16;5092562;28;20498;-49
2022/01/23 14:51:59;;;;;;;20.45;12.32;;;;;;;8.38;49.38;100056.91;5092605;28;20024;-49
2022/01/23 14:54:29;;;;;;;21.38;12.35;;;;;;;8.51;49.37;100045.22;5092492;28;20073;-48
2022/01/23 14:56:57;;;;;;;16.88;11.85;;;;;;;8.61;48.76;100061.66;5092484;28;20032;-49
2022/01/23 14:59:23;;;;;;;18.95;13.23;;;;;;;8.50;49.50;100061.94;5092434;28;20020;-49
2022/01/23 15:01:49;;;;;;;20.30;11.90;;;;;;;8.51;48.82;100046.09;5092244;28;20020;-49
2022/01/23 15:04:15;;;;;;;17.10;12.50;;;;;;;8.51;49.37;100064.41;5091023;28;20398;-49
2022/01/23 15:06:46;;;;;;;19.35;11.60;;;;;;;8.64;49.28;100056.13;5092298;28;20032;-49
2022/01/23 15:09:15;;;;;;;17.52;12.30;;;;;;;8.68;49.09;100059.25;5092324;28;20051;-48
2022/01/23 15:11:41;;;;;;;26.88;20.98;;;;;;;8.70;49.18;100057.31;5090950;28;20039;-50
2022/01/23 15:14:08;;;;;;;19.65;12.98;;;;;;;8.54;48.87;100056.22;5090895;28;20020;-49